createdAt,value
2018-01-17T00:01:01.062Z,992.28
2018-01-17T00:02:28.151Z,992.27
2018-01-17T00:03:55.191Z,992.26
2018-01-17T00:05:22.429Z,992.26
2018-01-17T00:06:49.647Z,992.24
2018-01-17T00:08:16.781Z,992.22
2018-01-17T00:09:43.978Z,992.24
2018-01-17T00:11:11.119Z,992.20
2018-01-17T00:12:38.332Z,992.18
2018-01-17T00:14:05.645Z,992.16
2018-01-17T00:15:32.727Z,992.14
2018-01-17T00:16:59.844Z,992.17
2018-01-17T00:18:27.190Z,992.17
2018-01-17T00:19:54.393Z,992.15
2018-01-17T00:21:21.553Z,992.12
2018-01-17T00:22:48.986Z,992.13
2018-01-17T00:24:16.146Z,992.13
2018-01-17T00:25:43.401Z,992.12
2018-01-17T00:27:10.609Z,992.10
2018-01-17T00:28:37.866Z,992.06
2018-01-17T00:30:04.842Z,992.10
2018-01-17T00:31:32.021Z,992.12
2018-01-17T00:32:59.190Z,992.13
2018-01-17T00:34:25.812Z,992.12
2018-01-17T00:35:52.977Z,992.17
2018-01-17T00:37:20.006Z,992.12
2018-01-17T00:38:47.114Z,992.16
2018-01-17T00:40:14.341Z,992.11
2018-01-17T00:41:41.681Z,992.13
2018-01-17T00:43:08.941Z,992.14
2018-01-17T00:44:36.097Z,992.14
2018-01-17T00:46:03.326Z,992.13
2018-01-17T00:47:30.570Z,992.14
2018-01-17T00:48:57.626Z,992.14
2018-01-17T00:50:24.880Z,992.11
2018-01-17T00:51:52.148Z,992.07
2018-01-17T00:53:19.490Z,992.01
2018-01-17T00:54:46.667Z,992.02
2018-01-17T00:56:13.826Z,992.02
2018-01-17T00:57:41.001Z,992.04
2018-01-17T00:59:07.817Z,992.05
2018-01-17T01:00:34.776Z,992.08
2018-01-17T01:02:02.011Z,992.10
2018-01-17T01:03:29.278Z,992.10
2018-01-17T01:04:56.491Z,992.11
2018-01-17T01:06:23.686Z,992.11
2018-01-17T01:07:50.887Z,992.10
2018-01-17T01:09:18.102Z,992.10
2018-01-17T01:10:45.333Z,992.14
2018-01-17T01:12:12.491Z,992.10
2018-01-17T01:13:39.704Z,992.09
2018-01-17T01:15:07.036Z,992.09
2018-01-17T01:16:34.296Z,992.11
2018-01-17T01:18:01.538Z,992.10
2018-01-17T01:19:28.788Z,992.13
2018-01-17T01:20:56.065Z,992.14
2018-01-17T01:22:23.208Z,992.13
2018-01-17T01:23:50.416Z,992.16
2018-01-17T01:25:17.609Z,992.15
2018-01-17T01:26:44.833Z,992.15
2018-01-17T01:28:12.139Z,992.19
2018-01-17T01:29:39.194Z,992.19
2018-01-17T01:31:06.491Z,992.17
2018-01-17T01:32:33.697Z,992.15
2018-01-17T01:34:00.851Z,992.16
2018-01-17T01:35:27.980Z,992.16
2018-01-17T01:36:54.900Z,992.13
2018-01-17T01:38:21.999Z,992.07
2018-01-17T01:39:49.209Z,992.05
2018-01-17T01:41:16.409Z,992.05
2018-01-17T01:42:43.489Z,992.06
2018-01-17T01:44:10.870Z,992.04
2018-01-17T01:45:37.955Z,992.04
2018-01-17T01:47:05.224Z,992.05
2018-01-17T01:48:32.483Z,992.04
2018-01-17T01:49:59.689Z,992.02
2018-01-17T01:51:26.849Z,992.01
2018-01-17T01:52:53.971Z,992.01
2018-01-17T01:54:21.246Z,992.00
2018-01-17T01:55:48.436Z,991.97
2018-01-17T01:57:15.621Z,991.95
2018-01-17T01:58:42.857Z,991.94
2018-01-17T02:00:10.165Z,991.91
2018-01-17T02:01:37.462Z,991.90
2018-01-17T02:03:04.584Z,991.91
2018-01-17T02:04:31.728Z,991.95
2018-01-17T02:05:58.876Z,991.96
2018-01-17T02:07:26.017Z,991.97
2018-01-17T02:08:53.338Z,991.96
2018-01-17T02:10:20.521Z,991.94
2018-01-17T02:11:47.725Z,991.94
2018-01-17T02:13:14.980Z,991.92
2018-01-17T02:14:42.011Z,991.96
2018-01-17T02:16:09.299Z,991.96
2018-01-17T02:17:36.521Z,991.95
2018-01-17T02:19:03.666Z,991.91
2018-01-17T02:20:30.854Z,991.92
2018-01-17T02:21:58.146Z,991.93
2018-01-17T02:23:25.228Z,991.90
2018-01-17T02:24:52.480Z,991.93
2018-01-17T02:26:19.768Z,991.93
2018-01-17T02:27:46.695Z,991.95
2018-01-17T02:29:13.750Z,991.94
2018-01-17T02:30:41.015Z,991.96
2018-01-17T02:32:08.259Z,991.99
2018-01-17T02:33:35.698Z,991.97
2018-01-17T02:35:02.530Z,991.98
2018-01-17T02:36:29.571Z,991.97
2018-01-17T02:37:56.745Z,992.00
2018-01-17T02:39:23.929Z,992.03
2018-01-17T02:40:51.170Z,991.99
2018-01-17T02:42:18.280Z,991.97
2018-01-17T02:43:45.572Z,991.95
2018-01-17T02:45:12.645Z,992.01
2018-01-17T02:46:39.868Z,991.99
2018-01-17T02:48:07.137Z,991.99
2018-01-17T02:49:34.071Z,991.95
2018-01-17T02:51:01.305Z,991.91
2018-01-17T02:52:28.383Z,991.91
2018-01-17T02:53:55.288Z,991.94
2018-01-17T02:55:22.514Z,991.93
2018-01-17T02:56:49.725Z,991.94
2018-01-17T02:58:17.144Z,991.93
2018-01-17T02:59:44.159Z,991.94
2018-01-17T03:01:11.412Z,991.91
2018-01-17T03:02:38.651Z,991.92
2018-01-17T03:04:05.860Z,991.91
2018-01-17T03:05:33.260Z,991.91
2018-01-17T03:07:00.369Z,991.89
2018-01-17T03:08:27.530Z,991.87
2018-01-17T03:09:54.967Z,991.86
2018-01-17T03:11:22.224Z,991.84
2018-01-17T03:12:49.473Z,991.82
2018-01-17T03:14:16.627Z,991.83
2018-01-17T03:15:43.797Z,991.83
2018-01-17T03:17:10.989Z,991.82
2018-01-17T03:18:38.322Z,991.80
2018-01-17T03:20:05.345Z,991.81
2018-01-17T03:21:32.592Z,991.79
2018-01-17T03:22:59.519Z,991.80
2018-01-17T03:24:26.295Z,991.81
2018-01-17T03:25:53.621Z,991.77
2018-01-17T03:27:20.684Z,991.77
2018-01-17T03:28:47.884Z,991.81
2018-01-17T03:30:15.244Z,991.79
2018-01-17T03:31:42.320Z,991.79
2018-01-17T03:33:09.537Z,991.80
2018-01-17T03:34:36.591Z,991.79
2018-01-17T03:36:03.588Z,991.79
2018-01-17T03:37:30.968Z,991.79
2018-01-17T03:38:58.092Z,991.78
2018-01-17T03:40:25.352Z,991.78
2018-01-17T03:41:52.467Z,991.76
2018-01-17T03:43:19.712Z,991.76
2018-01-17T03:44:46.857Z,991.74
2018-01-17T03:46:14.022Z,991.73
2018-01-17T03:47:41.266Z,991.75
2018-01-17T03:49:08.589Z,991.73
2018-01-17T03:50:35.736Z,991.73
2018-01-17T03:52:02.927Z,991.75
2018-01-17T03:53:29.983Z,991.78
2018-01-17T03:54:57.211Z,991.77
2018-01-17T03:56:24.549Z,991.80
2018-01-17T03:57:51.709Z,991.82
2018-01-17T03:59:19.037Z,991.80
2018-01-17T04:00:46.190Z,991.83
2018-01-17T04:02:13.274Z,991.83
2018-01-17T04:03:40.561Z,991.84
2018-01-17T04:05:07.683Z,991.83
2018-01-17T04:06:34.744Z,991.81
2018-01-17T04:08:01.939Z,991.84
2018-01-17T04:09:28.972Z,991.83
2018-01-17T04:10:56.081Z,991.83
2018-01-17T04:12:23.270Z,991.84
2018-01-17T04:13:50.383Z,991.86
2018-01-17T04:15:17.631Z,991.85
2018-01-17T04:16:44.991Z,991.87
2018-01-17T04:18:12.068Z,991.87
2018-01-17T04:19:39.379Z,991.88
2018-01-17T04:21:06.483Z,991.85
2018-01-17T04:22:33.728Z,991.83
2018-01-17T04:24:00.677Z,991.81
2018-01-17T04:25:27.859Z,991.78
2018-01-17T04:26:54.739Z,991.78
2018-01-17T04:28:22.010Z,991.77
2018-01-17T04:29:49.247Z,991.76
2018-01-17T04:31:16.552Z,991.77
2018-01-17T04:32:43.778Z,991.75
2018-01-17T04:34:11.016Z,991.75
2018-01-17T04:35:38.157Z,991.75
2018-01-17T04:37:05.353Z,991.78
2018-01-17T04:38:32.611Z,991.80
2018-01-17T04:39:59.745Z,991.80
2018-01-17T04:41:26.756Z,991.83
2018-01-17T04:42:53.996Z,991.84
2018-01-17T04:44:21.175Z,991.79
2018-01-17T04:45:48.301Z,991.83
2018-01-17T04:47:15.544Z,991.81
2018-01-17T04:48:42.722Z,991.80
2018-01-17T04:50:09.691Z,991.77
2018-01-17T04:51:36.984Z,991.77
2018-01-17T04:53:04.091Z,991.77
2018-01-17T04:54:31.350Z,991.78
2018-01-17T04:55:58.400Z,991.77
2018-01-17T04:57:25.604Z,991.76
2018-01-17T04:58:52.854Z,991.75
2018-01-17T05:00:20.125Z,991.75
2018-01-17T05:01:47.122Z,991.75
2018-01-17T05:03:14.569Z,991.70
2018-01-17T05:04:41.740Z,991.72
2018-01-17T05:06:08.910Z,991.72
2018-01-17T05:07:36.011Z,991.76
2018-01-17T05:09:03.296Z,991.79
2018-01-17T05:10:30.533Z,991.83
2018-01-17T05:11:57.821Z,991.84
2018-01-17T05:13:24.649Z,991.82
2018-01-17T05:14:51.871Z,991.85
2018-01-17T05:16:19.345Z,991.84
2018-01-17T05:17:46.351Z,991.83
2018-01-17T05:19:13.324Z,991.84
2018-01-17T05:20:40.736Z,991.86
2018-01-17T05:22:08.036Z,991.81
2018-01-17T05:23:35.231Z,991.83
2018-01-17T05:25:02.285Z,991.82
2018-01-17T05:26:29.404Z,991.81
2018-01-17T05:27:56.497Z,991.81
2018-01-17T05:29:23.826Z,991.80
2018-01-17T05:30:50.938Z,991.81
2018-01-17T05:32:18.098Z,991.81
2018-01-17T05:33:45.442Z,991.82
2018-01-17T05:35:12.659Z,991.80
2018-01-17T05:36:39.907Z,991.82
2018-01-17T05:38:07.211Z,991.85
2018-01-17T05:39:34.570Z,991.86
2018-01-17T05:41:01.770Z,991.89
2018-01-17T05:42:28.886Z,991.90
2018-01-17T05:43:55.781Z,991.96
2018-01-17T05:45:22.831Z,991.98
2018-01-17T05:46:50.087Z,992.00
2018-01-17T05:48:17.191Z,992.01
2018-01-17T05:49:44.463Z,992.05
2018-01-17T05:51:11.704Z,992.07
2018-01-17T05:52:38.824Z,992.07
2018-01-17T05:54:06.256Z,992.04
2018-01-17T05:55:33.329Z,991.99
2018-01-17T05:57:00.462Z,992.01
2018-01-17T05:58:27.776Z,992.00
2018-01-17T05:59:54.733Z,991.98
2018-01-17T06:01:21.833Z,992.00
2018-01-17T06:02:49.088Z,992.03
2018-01-17T06:04:15.576Z,992.05
2018-01-17T06:05:42.624Z,992.07
2018-01-17T06:07:09.786Z,992.05
2018-01-17T06:08:37.119Z,992.04
2018-01-17T06:10:04.288Z,992.05
2018-01-17T06:11:31.131Z,992.05
2018-01-17T06:12:58.096Z,992.05
2018-01-17T06:14:25.024Z,992.08
2018-01-17T06:15:52.206Z,992.13
2018-01-17T06:17:19.422Z,992.12
2018-01-17T06:18:46.695Z,992.13
2018-01-17T06:20:14.048Z,992.18
2018-01-17T06:21:41.266Z,992.23
2018-01-17T06:23:08.552Z,992.23
2018-01-17T06:24:35.688Z,992.25
2018-01-17T06:26:02.948Z,992.28
2018-01-17T06:27:30.093Z,992.31
2018-01-17T06:28:57.219Z,992.38
2018-01-17T06:30:24.352Z,992.40
2018-01-17T06:31:51.421Z,992.45
2018-01-17T06:33:18.832Z,992.46
2018-01-17T06:34:45.966Z,992.47
2018-01-17T06:36:13.228Z,992.53
2018-01-17T06:37:40.476Z,992.57
2018-01-17T06:39:07.714Z,992.62
2018-01-17T06:40:34.965Z,992.61
2018-01-17T06:42:02.105Z,992.61
2018-01-17T06:43:29.271Z,992.60
2018-01-17T06:44:56.380Z,992.58
2018-01-17T06:46:23.670Z,992.58
2018-01-17T06:47:50.791Z,992.59
2018-01-17T06:49:18.054Z,992.61
2018-01-17T06:50:45.245Z,992.61
2018-01-17T06:52:12.458Z,992.63
2018-01-17T06:53:39.753Z,992.67
2018-01-17T06:55:06.909Z,992.69
2018-01-17T06:56:33.937Z,992.68
2018-01-17T06:58:01.112Z,992.68
2018-01-17T06:59:28.450Z,992.67
2018-01-17T07:00:55.504Z,992.68
2018-01-17T07:02:22.460Z,992.67
2018-01-17T07:03:49.576Z,992.64
2018-01-17T07:05:16.795Z,992.64
2018-01-17T07:06:43.449Z,992.63
2018-01-17T07:08:10.644Z,992.66
2018-01-17T07:09:37.840Z,992.69
2018-01-17T07:11:04.873Z,992.68
2018-01-17T07:12:32.024Z,992.69
2018-01-17T07:13:59.364Z,992.74
2018-01-17T07:15:26.155Z,992.75
2018-01-17T07:16:53.451Z,992.77
2018-01-17T07:18:20.819Z,992.78
2018-01-17T07:19:47.982Z,992.83
2018-01-17T07:21:15.293Z,992.85
2018-01-17T07:22:42.433Z,992.87
2018-01-17T07:24:09.619Z,992.87
2018-01-17T07:25:36.933Z,992.88
2018-01-17T07:27:04.054Z,992.90
2018-01-17T07:28:31.162Z,992.94
2018-01-17T07:29:58.331Z,992.98
2018-01-17T07:31:25.306Z,992.97
2018-01-17T07:32:52.066Z,992.99
2018-01-17T07:34:19.133Z,993.01
2018-01-17T07:35:46.348Z,993.03
2018-01-17T07:37:13.643Z,993.01
2018-01-17T07:38:40.814Z,993.02
2018-01-17T07:40:08.125Z,993.02
2018-01-17T07:41:35.311Z,993.04
2018-01-17T07:43:02.145Z,993.00
2018-01-17T07:44:29.411Z,993.01
2018-01-17T07:45:56.708Z,993.01
2018-01-17T07:47:23.798Z,993.03
2018-01-17T07:48:51.074Z,993.03
2018-01-17T07:50:18.197Z,993.01
2018-01-17T07:51:45.349Z,993.02
2018-01-17T07:53:12.505Z,993.05
2018-01-17T07:54:39.812Z,993.07
2018-01-17T07:56:07.135Z,993.10
2018-01-17T07:57:34.222Z,993.10
2018-01-17T07:59:01.543Z,993.13
2018-01-17T08:00:28.695Z,993.13
2018-01-17T08:01:55.646Z,993.13
2018-01-17T08:03:22.715Z,993.13
2018-01-17T08:04:49.966Z,993.13
2018-01-17T08:06:17.239Z,993.16
2018-01-17T08:07:44.354Z,993.17
2018-01-17T08:09:11.894Z,993.19
2018-01-17T08:10:38.923Z,993.18
2018-01-17T08:12:06.151Z,993.21
2018-01-17T08:13:33.538Z,993.22
2018-01-17T08:15:00.632Z,993.24
2018-01-17T08:16:27.862Z,993.25
2018-01-17T08:17:55.140Z,993.25
2018-01-17T08:19:22.160Z,993.22
2018-01-17T08:20:49.451Z,993.25
2018-01-17T08:22:16.711Z,993.19
2018-01-17T08:23:43.860Z,993.19
2018-01-17T08:25:11.067Z,993.19
2018-01-17T08:26:38.407Z,993.20
2018-01-17T08:28:05.467Z,993.22
2018-01-17T08:29:32.690Z,993.24
2018-01-17T08:30:59.817Z,993.25
2018-01-17T08:32:26.777Z,993.25
2018-01-17T08:33:54.019Z,993.28
2018-01-17T08:35:21.371Z,993.30
2018-01-17T08:36:48.471Z,993.32
2018-01-17T08:38:15.733Z,993.31
2018-01-17T08:39:42.922Z,993.34
2018-01-17T08:41:10.158Z,993.36
2018-01-17T08:42:37.411Z,993.35
2018-01-17T08:44:04.542Z,993.37
2018-01-17T08:45:31.797Z,993.38
2018-01-17T08:46:59.028Z,993.39
2018-01-17T08:48:26.246Z,993.42
2018-01-17T08:49:53.681Z,993.44
2018-01-17T08:51:20.484Z,993.47
2018-01-17T08:52:47.779Z,993.47
2018-01-17T08:54:15.014Z,993.52
2018-01-17T08:55:42.321Z,993.55
2018-01-17T08:57:09.313Z,993.54
2018-01-17T08:58:36.381Z,993.61
2018-01-17T09:00:03.600Z,993.67
2018-01-17T09:01:30.638Z,993.67
2018-01-17T09:02:57.798Z,993.68
2018-01-17T09:04:25.062Z,993.72
2018-01-17T09:05:52.176Z,993.74
2018-01-17T09:07:19.523Z,993.78
2018-01-17T09:08:46.610Z,993.78
2018-01-17T09:10:13.706Z,993.79
2018-01-17T09:11:41.165Z,993.79
2018-01-17T09:13:08.018Z,993.81
2018-01-17T09:14:35.116Z,993.83
2018-01-17T09:16:02.258Z,993.87
2018-01-17T09:17:29.092Z,993.90
2018-01-17T09:18:56.122Z,993.94
2018-01-17T09:20:23.446Z,993.94
2018-01-17T09:21:50.305Z,993.99
2018-01-17T09:23:17.409Z,994.01
2018-01-17T09:24:44.542Z,994.00
2018-01-17T09:26:11.615Z,994.02
2018-01-17T09:27:38.923Z,994.04
2018-01-17T09:29:05.784Z,994.07
2018-01-17T09:30:32.885Z,994.06
2018-01-17T09:31:59.920Z,994.08
2018-01-17T09:33:26.979Z,994.07
2018-01-17T09:34:54.232Z,994.13
2018-01-17T09:36:21.531Z,994.14
2018-01-17T09:37:48.900Z,994.13
2018-01-17T09:39:16.032Z,994.17
2018-01-17T09:40:43.223Z,994.21
2018-01-17T09:42:10.236Z,994.24
2018-01-17T09:43:37.380Z,994.24
2018-01-17T09:45:04.539Z,994.32
2018-01-17T09:46:31.504Z,994.33
2018-01-17T09:47:58.376Z,994.36
2018-01-17T09:49:25.737Z,994.35
2018-01-17T09:50:53.146Z,994.36
2018-01-17T09:52:20.472Z,994.38
2018-01-17T09:53:47.355Z,994.38
2018-01-17T09:55:14.497Z,994.37
2018-01-17T09:56:41.704Z,994.39
2018-01-17T09:58:08.888Z,994.42
2018-01-17T09:59:35.974Z,994.41
2018-01-17T10:01:03.228Z,994.40
2018-01-17T10:02:30.546Z,994.40
2018-01-17T10:03:57.623Z,994.42
2018-01-17T10:05:24.689Z,994.45
2018-01-17T10:06:51.716Z,994.47
2018-01-17T10:08:18.773Z,994.52
2018-01-17T10:09:45.931Z,994.48
2018-01-17T10:11:13.015Z,994.50
2018-01-17T10:12:40.283Z,994.49
2018-01-17T10:14:07.589Z,994.53
2018-01-17T10:15:34.694Z,994.55
2018-01-17T10:17:01.870Z,994.58
2018-01-17T10:18:29.003Z,994.61
2018-01-17T10:19:55.810Z,994.63
2018-01-17T10:21:23.107Z,994.63
2018-01-17T10:22:50.320Z,994.67
2018-01-17T10:24:17.398Z,994.67
2018-01-17T10:25:44.488Z,994.68
2018-01-17T10:27:11.596Z,994.71
2018-01-17T10:28:38.758Z,994.70
2018-01-17T10:30:05.948Z,994.72
2018-01-17T10:31:33.114Z,994.72
2018-01-17T10:33:00.388Z,994.74
2018-01-17T10:34:27.400Z,994.75
2018-01-17T10:35:54.610Z,994.77
2018-01-17T10:37:21.881Z,994.79
2018-01-17T10:38:49.028Z,994.79
2018-01-17T10:40:16.348Z,994.81
2018-01-17T10:41:43.528Z,994.86
2018-01-17T10:43:10.804Z,994.87
2018-01-17T10:44:38.083Z,994.87
2018-01-17T10:46:05.199Z,994.89
2018-01-17T10:47:32.472Z,994.90
2018-01-17T10:48:59.650Z,994.93
2018-01-17T10:50:26.888Z,994.93
2018-01-17T10:51:54.037Z,994.95
2018-01-17T10:53:21.338Z,994.94
2018-01-17T10:54:48.475Z,994.95
2018-01-17T10:56:15.706Z,994.97
2018-01-17T10:57:43.026Z,994.97
2018-01-17T10:59:10.209Z,994.97
2018-01-17T11:00:37.305Z,994.99
2018-01-17T11:02:04.493Z,995.02
2018-01-17T11:03:31.664Z,995.06
2018-01-17T11:04:58.636Z,995.07
2018-01-17T11:06:25.484Z,995.04
2018-01-17T11:07:52.809Z,995.08
2018-01-17T11:09:19.924Z,995.10
2018-01-17T11:10:47.034Z,995.09
2018-01-17T11:12:14.234Z,995.09
2018-01-17T11:13:41.269Z,995.12
2018-01-17T11:15:08.503Z,995.14
2018-01-17T11:16:35.826Z,995.14
2018-01-17T11:18:02.959Z,995.16
2018-01-17T11:19:30.317Z,995.19
2018-01-17T11:20:57.463Z,995.23
2018-01-17T11:22:24.827Z,995.26
2018-01-17T11:23:51.678Z,995.27
2018-01-17T11:25:18.811Z,995.29
2018-01-17T11:26:45.954Z,995.29
2018-01-17T11:28:13.156Z,995.29
2018-01-17T11:29:40.298Z,995.30
2018-01-17T11:31:07.477Z,995.31
2018-01-17T11:32:34.659Z,995.33
2018-01-17T11:34:01.933Z,995.32
2018-01-17T11:35:29.131Z,995.34
2018-01-17T11:36:55.919Z,995.35
2018-01-17T11:38:23.086Z,995.34
2018-01-17T11:39:50.246Z,995.35
2018-01-17T11:41:17.246Z,995.35
2018-01-17T11:42:44.383Z,995.35
2018-01-17T11:44:11.712Z,995.38
2018-01-17T11:45:38.976Z,995.40
2018-01-17T11:47:06.095Z,995.44
2018-01-17T11:48:33.049Z,995.47
2018-01-17T11:50:00.338Z,995.46
2018-01-17T11:51:27.580Z,995.45
2018-01-17T11:52:54.826Z,995.44
2018-01-17T11:54:21.847Z,995.47
2018-01-17T11:55:49.156Z,995.45
2018-01-17T11:57:16.313Z,995.47
2018-01-17T11:58:43.553Z,995.49
2018-01-17T12:00:10.785Z,995.50
2018-01-17T12:01:38.013Z,995.52
2018-01-17T12:03:05.124Z,995.53
2018-01-17T12:04:32.305Z,995.56
2018-01-17T12:05:59.354Z,995.58
2018-01-17T12:07:26.536Z,995.58
2018-01-17T12:08:53.959Z,995.63
2018-01-17T12:10:21.077Z,995.64
2018-01-17T12:11:48.419Z,995.64
2018-01-17T12:13:15.535Z,995.64
2018-01-17T12:14:42.864Z,995.67
2018-01-17T12:16:10.059Z,995.70
2018-01-17T12:17:37.358Z,995.72
2018-01-17T12:19:04.538Z,995.73
2018-01-17T12:20:31.764Z,995.78
2018-01-17T12:21:58.678Z,995.79
2018-01-17T12:23:25.710Z,995.83
2018-01-17T12:24:52.704Z,995.83
2018-01-17T12:26:19.910Z,995.87
2018-01-17T12:27:55.015Z,995.86
2018-01-17T12:29:14.125Z,995.88
2018-01-17T12:30:41.375Z,995.87
2018-01-17T12:32:08.611Z,995.85
2018-01-17T12:33:35.747Z,995.87
2018-01-17T12:35:02.940Z,995.85
2018-01-17T12:36:29.980Z,995.88
2018-01-17T12:37:57.146Z,995.86
2018-01-17T12:39:24.186Z,995.90
2018-01-17T12:40:51.323Z,995.91
2018-01-17T12:42:18.685Z,995.92
2018-01-17T12:43:45.938Z,995.97
2018-01-17T12:45:13.194Z,995.95
2018-01-17T12:46:40.347Z,995.97
2018-01-17T12:48:07.497Z,995.99
2018-01-17T12:49:34.746Z,996.02
2018-01-17T12:51:01.988Z,996.04
2018-01-17T12:52:29.341Z,996.06
2018-01-17T12:53:56.253Z,996.07
2018-01-17T12:55:23.458Z,996.10
2018-01-17T12:56:50.767Z,996.10
2018-01-17T12:58:17.941Z,996.12
2018-01-17T12:59:45.047Z,996.15
2018-01-17T13:01:12.365Z,996.18
2018-01-17T13:02:39.648Z,996.21
2018-01-17T13:04:06.672Z,996.25
2018-01-17T13:05:33.949Z,996.24
2018-01-17T13:07:01.252Z,996.25
2018-01-17T13:08:28.400Z,996.27
2018-01-17T13:09:55.467Z,996.29
2018-01-17T13:11:22.691Z,996.28
2018-01-17T13:12:49.813Z,996.29
2018-01-17T13:14:17.024Z,996.29
2018-01-17T13:15:44.166Z,996.32
2018-01-17T13:17:11.438Z,996.33
2018-01-17T13:18:38.632Z,996.37
2018-01-17T13:20:05.967Z,996.41
2018-01-17T13:21:32.958Z,996.41
2018-01-17T13:23:00.122Z,996.44
2018-01-17T13:24:27.276Z,996.45
2018-01-17T13:25:54.362Z,996.46
2018-01-17T13:27:21.445Z,996.48
2018-01-17T13:28:48.760Z,996.47
2018-01-17T13:30:15.944Z,996.46
2018-01-17T13:31:43.222Z,996.45
2018-01-17T13:33:10.493Z,996.48
2018-01-17T13:34:37.572Z,996.47
2018-01-17T13:36:04.761Z,996.52
2018-01-17T13:37:32.120Z,996.53
2018-01-17T13:38:59.121Z,996.53
2018-01-17T13:40:26.226Z,996.53
2018-01-17T13:41:53.560Z,996.53
2018-01-17T13:43:20.808Z,996.56
2018-01-17T13:44:48.138Z,996.56
2018-01-17T13:46:15.318Z,996.53
2018-01-17T13:47:42.607Z,996.52
2018-01-17T13:49:09.717Z,996.48
2018-01-17T13:50:36.979Z,996.44
2018-01-17T13:52:04.244Z,996.43
2018-01-17T13:53:31.420Z,996.45
2018-01-17T13:54:58.524Z,996.44
2018-01-17T13:56:25.578Z,996.48
2018-01-17T13:57:52.760Z,996.51
2018-01-17T13:59:19.962Z,996.49
2018-01-17T14:02:14.563Z,996.52
2018-01-17T14:03:41.663Z,996.53
2018-01-17T14:05:08.891Z,996.49
2018-01-17T14:06:36.120Z,996.50
2018-01-17T14:08:03.494Z,996.52
2018-01-17T14:09:30.376Z,996.52
2018-01-17T14:10:57.354Z,996.53
2018-01-17T14:12:24.642Z,996.53
2018-01-17T14:13:51.828Z,996.54
2018-01-17T14:15:19.023Z,996.55
2018-01-17T14:16:46.301Z,996.57
2018-01-17T14:18:13.456Z,996.60
2018-01-17T14:19:40.504Z,996.59
2018-01-17T14:21:07.813Z,996.63
2018-01-17T14:22:34.863Z,996.67
2018-01-17T14:24:02.165Z,996.68
2018-01-17T14:25:28.987Z,996.69
2018-01-17T14:26:56.117Z,996.67
2018-01-17T14:28:23.409Z,996.66
2018-01-17T14:29:50.727Z,996.70
2018-01-17T14:31:17.718Z,996.73
2018-01-17T14:32:44.766Z,996.76
2018-01-17T14:34:12.063Z,996.78
2018-01-17T14:35:39.366Z,996.80
2018-01-17T14:37:06.525Z,996.84
2018-01-17T14:38:33.801Z,996.80
2018-01-17T14:40:00.804Z,996.83
2018-01-17T14:41:28.009Z,996.84
2018-01-17T14:42:55.145Z,996.88
2018-01-17T14:44:22.166Z,996.89
2018-01-17T14:45:49.364Z,996.94
2018-01-17T14:47:16.439Z,996.95
2018-01-17T14:48:43.602Z,997.00
2018-01-17T14:50:10.933Z,997.04
2018-01-17T14:51:38.043Z,997.10
2018-01-17T14:53:05.217Z,997.15
2018-01-17T14:54:32.487Z,997.20
2018-01-17T14:55:59.643Z,997.20
2018-01-17T14:57:26.710Z,997.22
2018-01-17T14:58:53.951Z,997.26
2018-01-17T15:00:21.307Z,997.25
2018-01-17T15:01:48.509Z,997.27
2018-01-17T15:03:15.883Z,997.31
2018-01-17T15:04:42.850Z,997.32
2018-01-17T15:06:09.926Z,997.30
2018-01-17T15:07:37.202Z,997.32
2018-01-17T15:09:04.503Z,997.33
2018-01-17T15:10:31.612Z,997.37
2018-01-17T15:11:58.893Z,997.41
2018-01-17T15:13:25.933Z,997.44
2018-01-17T15:14:53.100Z,997.51
2018-01-17T15:16:20.014Z,997.47
2018-01-17T15:17:47.101Z,997.57
2018-01-17T15:19:14.407Z,997.58
2018-01-17T15:20:41.630Z,997.61
2018-01-17T15:22:08.842Z,997.68
2018-01-17T15:23:36.042Z,997.69
2018-01-17T15:25:03.076Z,997.71
2018-01-17T15:26:30.189Z,997.74
2018-01-17T15:27:57.042Z,997.73
2018-01-17T15:29:24.237Z,997.75
2018-01-17T15:30:51.568Z,997.77
2018-01-17T15:32:18.710Z,997.81
2018-01-17T15:33:46.047Z,997.87
2018-01-17T15:35:13.142Z,997.92
2018-01-17T15:36:40.373Z,997.91
2018-01-17T15:38:07.606Z,997.92
2018-01-17T15:39:34.650Z,997.94
2018-01-17T15:41:01.928Z,997.97
2018-01-17T15:42:29.132Z,998.02
2018-01-17T15:43:56.157Z,998.07
2018-01-17T15:45:23.198Z,998.14
2018-01-17T15:46:50.606Z,998.16
2018-01-17T15:48:17.776Z,998.21
2018-01-17T15:49:44.655Z,998.22
2018-01-17T15:51:11.835Z,998.25
2018-01-17T15:52:38.766Z,998.27
2018-01-17T15:54:05.646Z,998.28
2018-01-17T15:55:32.498Z,998.32
2018-01-17T15:56:59.924Z,998.35
2018-01-17T15:58:27.024Z,998.34
2018-01-17T15:59:54.339Z,998.34
2018-01-17T16:01:21.689Z,998.37
2018-01-17T16:02:49.069Z,998.38
2018-01-17T16:04:16.270Z,998.47
2018-01-17T16:05:43.541Z,998.45
2018-01-17T16:07:10.848Z,998.47
2018-01-17T16:08:38.086Z,998.51
2018-01-17T16:10:05.036Z,998.53
2018-01-17T16:11:32.270Z,998.58
2018-01-17T16:12:59.242Z,998.55
2018-01-17T16:14:26.366Z,998.58
2018-01-17T16:15:53.510Z,998.58
2018-01-17T16:17:20.633Z,998.60
2018-01-17T16:18:47.806Z,998.64
2018-01-17T16:20:14.992Z,998.64
2018-01-17T16:21:42.220Z,998.63
2018-01-17T16:23:09.322Z,998.67
2018-01-17T16:24:36.586Z,998.69
2018-01-17T16:26:03.777Z,998.75
2018-01-17T16:27:30.973Z,998.76
2018-01-17T16:28:58.045Z,998.78
2018-01-17T16:30:25.217Z,998.78
2018-01-17T16:31:52.483Z,998.86
2018-01-17T16:33:19.368Z,998.92
2018-01-17T16:34:46.544Z,998.94
2018-01-17T16:36:13.986Z,998.96
2018-01-17T16:37:41.133Z,999.00
2018-01-17T16:39:08.330Z,999.01
2018-01-17T16:40:35.494Z,999.05
2018-01-17T16:42:02.552Z,999.08
2018-01-17T16:43:29.677Z,999.08
2018-01-17T16:44:56.659Z,999.11
2018-01-17T16:46:23.293Z,999.16
2018-01-17T16:47:50.305Z,999.15
2018-01-17T16:49:17.567Z,999.14
2018-01-17T16:50:44.921Z,999.18
2018-01-17T16:52:12.128Z,999.19
2018-01-17T16:53:39.256Z,999.19
2018-01-17T16:55:06.485Z,999.17
2018-01-17T16:56:33.675Z,999.18
2018-01-17T16:58:00.695Z,999.19
2018-01-17T16:59:27.845Z,999.20
2018-01-17T17:00:55.235Z,999.21
2018-01-17T17:02:22.357Z,999.18
2018-01-17T17:03:49.503Z,999.19
2018-01-17T17:05:16.519Z,999.17
2018-01-17T17:06:43.835Z,999.21
2018-01-17T17:08:10.964Z,999.25
2018-01-17T17:09:37.994Z,999.24
2018-01-17T17:11:05.138Z,999.25
2018-01-17T17:12:32.289Z,999.27
2018-01-17T17:13:59.256Z,999.29
2018-01-17T17:15:26.460Z,999.34
2018-01-17T17:16:53.620Z,999.36
2018-01-17T17:18:20.565Z,999.36
2018-01-17T17:19:47.852Z,999.34
2018-01-17T17:21:14.482Z,999.36
2018-01-17T17:22:41.669Z,999.41
2018-01-17T17:24:09.046Z,999.45
2018-01-17T17:25:36.037Z,999.48
2018-01-17T17:27:03.109Z,999.49
2018-01-17T17:28:30.254Z,999.51
2018-01-17T17:29:57.055Z,999.54
2018-01-17T17:31:23.970Z,999.59
2018-01-17T17:32:51.134Z,999.58
2018-01-17T17:34:18.374Z,999.60
2018-01-17T17:35:45.482Z,999.61
2018-01-17T17:37:12.687Z,999.62
2018-01-17T17:38:39.636Z,999.63
2018-01-17T17:40:06.697Z,999.62
2018-01-17T17:41:33.861Z,999.63
2018-01-17T17:43:01.102Z,999.69
2018-01-17T17:44:28.048Z,999.70
2018-01-17T17:45:54.690Z,999.70
2018-01-17T17:47:21.913Z,999.70
2018-01-17T17:48:49.040Z,999.71
2018-01-17T17:50:16.201Z,999.72
2018-01-17T17:51:43.232Z,999.73
2018-01-17T17:53:10.266Z,999.80
2018-01-17T17:54:37.439Z,999.82
2018-01-17T17:56:04.649Z,999.81
2018-01-17T17:57:31.718Z,999.82
2018-01-17T17:58:59.016Z,999.83
2018-01-17T18:00:25.945Z,999.84
2018-01-17T18:01:53.241Z,999.83
2018-01-17T18:03:20.299Z,999.87
2018-01-17T18:04:47.289Z,999.87
2018-01-17T18:06:14.675Z,999.88
2018-01-17T18:07:41.804Z,999.89
2018-01-17T18:09:08.859Z,999.89